sensor_id;sensor_type;location;lat;lon;timestamp;temperature;humidity
19888;DHT22;10106;51.332;12.336;2023-04-25T00:00:58;7.50;99.90
19888;DHT22;10106;51.332;12.336;2023-04-25T00:03:24;7.60;99.90
19888;DHT22;10106;51.332;12.336;2023-04-25T00:05:50;7.70;99.90
19888;DHT22;10106;51.332;12.336;2023-04-25T00:08:18;7.70;99.90
19888;DHT22;10106;51.332;12.336;2023-04-25T00:10:43;7.80;99.90
19888;DHT22;10106;51.332;12.336;2023-04-25T00:13:09;7.70;99.90
19888;DHT22;10106;51.332;12.336;2023-04-25T00:15:36;7.70;99.90
19888;DHT22;10106;51.332;12.336;2023-04-25T00:18:03;7.60;99.90
19888;DHT22;10106;51.332;12.336;2023-04-25T00:20:29;7.50;99.90
19888;DHT22;10106;51.332;12.336;2023-04-25T00:22:55;7.50;99.90
19888;DHT22;10106;51.332;12.336;2023-04-25T00:25:21;7.40;99.90
19888;DHT22;10106;51.332;12.336;2023-04-25T00:27:46;7.30;99.90
19888;DHT22;10106;51.332;12.336;2023-04-25T00:30:12;7.20;99.90
19888;DHT22;10106;51.332;12.336;2023-04-25T00:32:37;7.10;99.90
19888;DHT22;10106;51.332;12.336;2023-04-25T00:35:03;7.00;99.90
19888;DHT22;10106;51.332;12.336;2023-04-25T00:37:29;6.90;99.90
19888;DHT22;10106;51.332;12.336;2023-04-25T00:39:54;6.80;99.90
19888;DHT22;10106;51.332;12.336;2023-04-25T00:42:21;6.80;99.90
19888;DHT22;10106;51.332;12.336;2023-04-25T00:44:46;6.70;99.90
19888;DHT22;10106;51.332;12.336;2023-04-25T00:47:12;6.60;99.90
19888;DHT22;10106;51.332;12.336;2023-04-25T00:49:38;6.60;99.90
19888;DHT22;10106;51.332;12.336;2023-04-25T00:52:04;6.50;99.90
19888;DHT22;10106;51.332;12.336;2023-04-25T00:54:29;6.50;99.90
19888;DHT22;10106;51.332;12.336;2023-04-25T00:56:56;6.40;99.90
19888;DHT22;10106;51.332;12.336;2023-04-25T00:59:21;6.30;99.90
19888;DHT22;10106;51.332;12.336;2023-04-25T01:01:47;6.30;99.90
19888;DHT22;10106;51.332;12.336;2023-04-25T01:04:13;6.20;99.90
19888;DHT22;10106;51.332;12.336;2023-04-25T01:06:38;6.20;99.90
19888;DHT22;10106;51.332;12.336;2023-04-25T01:09:04;6.20;99.90
19888;DHT22;10106;51.332;12.336;2023-04-25T01:11:30;6.10;99.90
19888;DHT22;10106;51.332;12.336;2023-04-25T01:13:56;6.00;99.90
19888;DHT22;10106;51.332;12.336;2023-04-25T01:16:22;6.00;99.90
19888;DHT22;10106;51.332;12.336;2023-04-25T01:18:49;6.00;99.90
19888;DHT22;10106;51.332;12.336;2023-04-25T01:21:15;6.00;99.90
19888;DHT22;10106;51.332;12.336;2023-04-25T01:23:41;5.90;99.90
19888;DHT22;10106;51.332;12.336;2023-04-25T01:26:10;5.90;99.90
19888;DHT22;10106;51.332;12.336;2023-04-25T01:28:36;5.90;99.90
19888;DHT22;10106;51.332;12.336;2023-04-25T01:31:02;5.90;99.90
19888;DHT22;10106;51.332;12.336;2023-04-25T01:33:28;5.80;99.90
19888;DHT22;10106;51.332;12.336;2023-04-25T01:35:54;5.80;99.90
19888;DHT22;10106;51.332;12.336;2023-04-25T01:38:20;5.80;99.90
19888;DHT22;10106;51.332;12.336;2023-04-25T01:40:45;5.90;99.90
19888;DHT22;10106;51.332;12.336;2023-04-25T01:43:12;5.90;99.90
19888;DHT22;10106;51.332;12.336;2023-04-25T01:45:39;5.90;99.90
19888;DHT22;10106;51.332;12.336;2023-04-25T01:48:09;5.80;99.90
19888;DHT22;10106;51.332;12.336;2023-04-25T01:50:35;5.90;99.90
19888;DHT22;10106;51.332;12.336;2023-04-25T01:53:01;5.90;99.90
19888;DHT22;10106;51.332;12.336;2023-04-25T01:55:27;5.90;99.90
19888;DHT22;10106;51.332;12.336;2023-04-25T01:57:53;5.90;99.90
19888;DHT22;10106;51.332;12.336;2023-04-25T02:00:18;6.00;99.90
19888;DHT22;10106;51.332;12.336;2023-04-25T02:02:44;6.00;99.90
19888;DHT22;10106;51.332;12.336;2023-04-25T02:05:09;6.00;99.90
19888;DHT22;10106;51.332;12.336;2023-04-25T02:07:35;6.00;99.90
19888;DHT22;10106;51.332;12.336;2023-04-25T02:10:01;6.00;99.90
19888;DHT22;10106;51.332;12.336;2023-04-25T02:12:27;6.00;99.90
19888;DHT22;10106;51.332;12.336;2023-04-25T02:14:53;6.00;99.90
19888;DHT22;10106;51.332;12.336;2023-04-25T02:17:18;6.00;99.90
19888;DHT22;10106;51.332;12.336;2023-04-25T02:19:44;6.10;99.90
19888;DHT22;10106;51.332;12.336;2023-04-25T02:22:10;6.10;99.90
19888;DHT22;10106;51.332;12.336;2023-04-25T02:24:35;6.20;99.90
19888;DHT22;10106;51.332;12.336;2023-04-25T02:27:01;6.20;99.90
19888;DHT22;10106;51.332;12.336;2023-04-25T02:29:26;6.20;99.90
19888;DHT22;10106;51.332;12.336;2023-04-25T02:31:52;6.10;99.90
19888;DHT22;10106;51.332;12.336;2023-04-25T02:34:17;6.10;99.90
19888;DHT22;10106;51.332;12.336;2023-04-25T02:36:43;6.10;99.90
19888;DHT22;10106;51.332;12.336;2023-04-25T02:39:08;6.00;99.90
19888;DHT22;10106;51.332;12.336;2023-04-25T02:41:34;6.00;99.90
19888;DHT22;10106;51.332;12.336;2023-04-25T02:44:02;6.00;99.90
19888;DHT22;10106;51.332;12.336;2023-04-25T02:46:28;6.00;99.90
19888;DHT22;10106;51.332;12.336;2023-04-25T02:48:56;6.00;99.90
19888;DHT22;10106;51.332;12.336;2023-04-25T02:51:21;5.90;99.90
19888;DHT22;10106;51.332;12.336;2023-04-25T02:53:47;5.80;99.90
19888;DHT22;10106;51.332;12.336;2023-04-25T02:56:12;5.80;99.90
19888;DHT22;10106;51.332;12.336;2023-04-25T02:58:38;5.70;99.90
19888;DHT22;10106;51.332;12.336;2023-04-25T03:01:03;5.60;99.90
19888;DHT22;10106;51.332;12.336;2023-04-25T03:03:29;5.60;99.90
19888;DHT22;10106;51.332;12.336;2023-04-25T03:05:55;5.60;99.90
19888;DHT22;10106;51.332;12.336;2023-04-25T03:08:21;5.60;99.90
19888;DHT22;10106;51.332;12.336;2023-04-25T03:10:46;5.60;99.90
19888;DHT22;10106;51.332;12.336;2023-04-25T03:13:12;5.50;99.90
19888;DHT22;10106;51.332;12.336;2023-04-25T03:15:37;5.40;99.90
19888;DHT22;10106;51.332;12.336;2023-04-25T03:18:03;5.40;99.90
19888;DHT22;10106;51.332;12.336;2023-04-25T03:20:29;5.40;99.90
19888;DHT22;10106;51.332;12.336;2023-04-25T03:22:54;5.40;99.90
19888;DHT22;10106;51.332;12.336;2023-04-25T03:25:20;5.40;99.90
19888;DHT22;10106;51.332;12.336;2023-04-25T03:27:46;5.40;99.90
19888;DHT22;10106;51.332;12.336;2023-04-25T03:30:11;5.40;99.90
19888;DHT22;10106;51.332;12.336;2023-04-25T03:32:37;5.40;99.90
19888;DHT22;10106;51.332;12.336;2023-04-25T03:35:02;5.40;99.90
19888;DHT22;10106;51.332;12.336;2023-04-25T03:37:28;5.40;99.90
19888;DHT22;10106;51.332;12.336;2023-04-25T03:39:54;5.40;99.90
19888;DHT22;10106;51.332;12.336;2023-04-25T03:42:19;5.40;99.90
19888;DHT22;10106;51.332;12.336;2023-04-25T03:44:48;5.40;99.90
19888;DHT22;10106;51.332;12.336;2023-04-25T03:47:14;5.30;99.90
19888;DHT22;10106;51.332;12.336;2023-04-25T03:49:39;5.40;99.90
19888;DHT22;10106;51.332;12.336;2023-04-25T03:52:05;5.30;99.90
19888;DHT22;10106;51.332;12.336;2023-04-25T03:54:30;5.30;99.90
19888;DHT22;10106;51.332;12.336;2023-04-25T03:56:56;5.30;99.90
19888;DHT22;10106;51.332;12.336;2023-04-25T03:59:21;5.30;99.90
19888;DHT22;10106;51.332;12.336;2023-04-25T04:01:47;5.40;99.90
19888;DHT22;10106;51.332;12.336;2023-04-25T04:04:12;5.40;99.90
19888;DHT22;10106;51.332;12.336;2023-04-25T04:06:38;5.40;99.90
19888;DHT22;10106;51.332;12.336;2023-04-25T04:09:04;5.40;99.90
19888;DHT22;10106;51.332;12.336;2023-04-25T04:11:29;5.40;99.90
19888;DHT22;10106;51.332;12.336;2023-04-25T04:13:56;5.50;99.90
19888;DHT22;10106;51.332;12.336;2023-04-25T04:16:22;5.50;99.90
19888;DHT22;10106;51.332;12.336;2023-04-25T04:18:47;5.60;99.90
19888;DHT22;10106;51.332;12.336;2023-04-25T04:21:13;5.70;99.90
19888;DHT22;10106;51.332;12.336;2023-04-25T04:23:38;5.80;99.90
19888;DHT22;10106;51.332;12.336;2023-04-25T04:26:04;5.80;99.90
19888;DHT22;10106;51.332;12.336;2023-04-25T04:28:30;5.90;99.90
19888;DHT22;10106;51.332;12.336;2023-04-25T04:30:56;6.00;99.90
19888;DHT22;10106;51.332;12.336;2023-04-25T04:33:21;6.10;99.90
19888;DHT22;10106;51.332;12.336;2023-04-25T04:35:49;6.20;99.90
19888;DHT22;10106;51.332;12.336;2023-04-25T04:38:17;6.40;99.90
19888;DHT22;10106;51.332;12.336;2023-04-25T04:40:43;6.60;99.90
19888;DHT22;10106;51.332;12.336;2023-04-25T04:43:09;6.90;99.90
19888;DHT22;10106;51.332;12.336;2023-04-25T04:45:35;7.10;99.90
19888;DHT22;10106;51.332;12.336;2023-04-25T04:48:01;7.40;99.90
19888;DHT22;10106;51.332;12.336;2023-04-25T04:50:27;8.00;99.90
19888;DHT22;10106;51.332;12.336;2023-04-25T04:52:53;8.50;99.90
19888;DHT22;10106;51.332;12.336;2023-04-25T04:55:20;9.00;99.90
19888;DHT22;10106;51.332;12.336;2023-04-25T04:57:45;9.10;99.90
19888;DHT22;10106;51.332;12.336;2023-04-25T05:07:52;12.00;99.90
19888;DHT22;10106;51.332;12.336;2023-04-25T05:10:18;12.80;99.90
19888;DHT22;10106;51.332;12.336;2023-04-25T05:12:44;13.20;99.90
19888;DHT22;10106;51.332;12.336;2023-04-25T05:15:11;13.60;99.90
19888;DHT22;10106;51.332;12.336;2023-04-25T05:17:36;13.70;99.90
19888;DHT22;10106;51.332;12.336;2023-04-25T05:20:02;13.60;99.90
19888;DHT22;10106;51.332;12.336;2023-04-25T05:22:31;13.70;99.90
19888;DHT22;10106;51.332;12.336;2023-04-25T05:24:56;14.10;99.90
19888;DHT22;10106;51.332;12.336;2023-04-25T05:27:22;14.40;99.90
19888;DHT22;10106;51.332;12.336;2023-04-25T05:29:48;14.70;99.90
19888;DHT22;10106;51.332;12.336;2023-04-25T05:32:13;14.50;99.90
19888;DHT22;10106;51.332;12.336;2023-04-25T05:34:39;14.50;99.90
19888;DHT22;10106;51.332;12.336;2023-04-25T05:37:05;14.10;99.90
19888;DHT22;10106;51.332;12.336;2023-04-25T05:39:31;14.00;99.90
19888;DHT22;10106;51.332;12.336;2023-04-25T05:41:57;14.30;99.90
19888;DHT22;10106;51.332;12.336;2023-04-25T05:44:23;14.90;99.90
19888;DHT22;10106;51.332;12.336;2023-04-25T05:46:49;15.90;99.90
19888;DHT22;10106;51.332;12.336;2023-04-25T05:49:14;16.60;98.40
19888;DHT22;10106;51.332;12.336;2023-04-25T05:51:40;17.10;97.40
19888;DHT22;10106;51.332;12.336;2023-04-25T05:54:05;17.70;95.00
19888;DHT22;10106;51.332;12.336;2023-04-25T05:56:31;17.40;95.30
19888;DHT22;10106;51.332;12.336;2023-04-25T05:58:57;17.40;94.20
19888;DHT22;10106;51.332;12.336;2023-04-25T06:01:23;17.30;94.30
19888;DHT22;10106;51.332;12.336;2023-04-25T06:03:49;17.20;94.40
19888;DHT22;10106;51.332;12.336;2023-04-25T06:06:14;17.00;94.60
19888;DHT22;10106;51.332;12.336;2023-04-25T06:08:40;17.10;93.70
19888;DHT22;10106;51.332;12.336;2023-04-25T06:11:08;17.40;93.90
19888;DHT22;10106;51.332;12.336;2023-04-25T06:13:34;17.50;92.90
19888;DHT22;10106;51.332;12.336;2023-04-25T06:16:00;18.50;91.60
19888;DHT22;10106;51.332;12.336;2023-04-25T06:18:25;18.90;90.90
19888;DHT22;10106;51.332;12.336;2023-04-25T06:20:51;19.50;88.90
19888;DHT22;10106;51.332;12.336;2023-04-25T06:23:17;20.20;87.10
19888;DHT22;10106;51.332;12.336;2023-04-25T06:25:42;20.90;81.30
19888;DHT22;10106;51.332;12.336;2023-04-25T06:28:08;21.20;78.60
19888;DHT22;10106;51.332;12.336;2023-04-25T06:30:34;21.20;76.30
19888;DHT22;10106;51.332;12.336;2023-04-25T06:32:59;20.20;75.90
19888;DHT22;10106;51.332;12.336;2023-04-25T06:35:25;18.80;77.50
19888;DHT22;10106;51.332;12.336;2023-04-25T06:37:50;17.10;80.70
19888;DHT22;10106;51.332;12.336;2023-04-25T06:40:16;15.30;86.60
19888;DHT22;10106;51.332;12.336;2023-04-25T06:42:43;14.30;90.90
19888;DHT22;10106;51.332;12.336;2023-04-25T06:45:09;14.10;93.60
19888;DHT22;10106;51.332;12.336;2023-04-25T06:47:35;15.60;92.50
19888;DHT22;10106;51.332;12.336;2023-04-25T06:50:00;17.00;90.50
19888;DHT22;10106;51.332;12.336;2023-04-25T06:52:26;16.10;90.20
19888;DHT22;10106;51.332;12.336;2023-04-25T06:54:51;15.10;91.50
19888;DHT22;10106;51.332;12.336;2023-04-25T06:57:17;14.20;93.10
19888;DHT22;10106;51.332;12.336;2023-04-25T06:59:43;13.70;94.50
19888;DHT22;10106;51.332;12.336;2023-04-25T07:02:09;13.00;96.10
19888;DHT22;10106;51.332;12.336;2023-04-25T07:04:34;12.30;98.40
19888;DHT22;10106;51.332;12.336;2023-04-25T07:07:00;12.00;99.90
19888;DHT22;10106;51.332;12.336;2023-04-25T07:09:28;11.70;99.90
19888;DHT22;10106;51.332;12.336;2023-04-25T07:11:53;11.40;99.90
19888;DHT22;10106;51.332;12.336;2023-04-25T07:14:19;11.00;99.90
19888;DHT22;10106;51.332;12.336;2023-04-25T07:16:45;10.70;99.90
19888;DHT22;10106;51.332;12.336;2023-04-25T07:19:11;10.50;99.90
19888;DHT22;10106;51.332;12.336;2023-04-25T07:21:36;10.40;99.90
19888;DHT22;10106;51.332;12.336;2023-04-25T07:24:02;10.40;99.90
19888;DHT22;10106;51.332;12.336;2023-04-25T07:26:28;10.30;99.90
19888;DHT22;10106;51.332;12.336;2023-04-25T07:28:54;10.20;99.90
19888;DHT22;10106;51.332;12.336;2023-04-25T07:31:20;10.20;99.90
19888;DHT22;10106;51.332;12.336;2023-04-25T07:33:45;10.10;99.90
19888;DHT22;10106;51.332;12.336;2023-04-25T07:36:11;10.00;99.90
19888;DHT22;10106;51.332;12.336;2023-04-25T07:38:37;10.00;99.90
19888;DHT22;10106;51.332;12.336;2023-04-25T07:41:03;10.00;99.90
19888;DHT22;10106;51.332;12.336;2023-04-25T07:43:29;9.90;99.90
19888;DHT22;10106;51.332;12.336;2023-04-25T07:45:54;9.90;99.90
19888;DHT22;10106;51.332;12.336;2023-04-25T07:48:20;9.80;99.90
19888;DHT22;10106;51.332;12.336;2023-04-25T07:50:45;9.80;99.90
19888;DHT22;10106;51.332;12.336;2023-04-25T07:53:11;9.70;99.90
19888;DHT22;10106;51.332;12.336;2023-04-25T07:55:37;9.70;99.90
19888;DHT22;10106;51.332;12.336;2023-04-25T07:58:06;9.50;99.90
19888;DHT22;10106;51.332;12.336;2023-04-25T08:00:32;9.40;99.90
19888;DHT22;10106;51.332;12.336;2023-04-25T08:02:58;9.40;99.90
19888;DHT22;10106;51.332;12.336;2023-04-25T08:05:23;9.30;99.90
19888;DHT22;10106;51.332;12.336;2023-04-25T08:07:49;9.20;99.90
19888;DHT22;10106;51.332;12.336;2023-04-25T08:10:15;9.20;99.90
19888;DHT22;10106;51.332;12.336;2023-04-25T08:12:41;9.20;99.90
19888;DHT22;10106;51.332;12.336;2023-04-25T08:15:07;9.10;99.90
19888;DHT22;10106;51.332;12.336;2023-04-25T08:17:33;9.20;99.90
19888;DHT22;10106;51.332;12.336;2023-04-25T08:19:59;9.20;99.90
19888;DHT22;10106;51.332;12.336;2023-04-25T08:22:24;9.10;99.90
19888;DHT22;10106;51.332;12.336;2023-04-25T08:24:50;9.30;99.90
19888;DHT22;10106;51.332;12.336;2023-04-25T08:27:20;9.50;99.90
19888;DHT22;10106;51.332;12.336;2023-04-25T08:29:46;9.70;99.90
19888;DHT22;10106;51.332;12.336;2023-04-25T08:32:12;9.90;99.90
19888;DHT22;10106;51.332;12.336;2023-04-25T08:34:37;10.10;99.90
19888;DHT22;10106;51.332;12.336;2023-04-25T08:37:04;10.50;99.90
19888;DHT22;10106;51.332;12.336;2023-04-25T08:39:31;10.20;99.90
19888;DHT22;10106;51.332;12.336;2023-04-25T08:41:56;10.30;99.90
19888;DHT22;10106;51.332;12.336;2023-04-25T08:44:22;10.20;99.90
19888;DHT22;10106;51.332;12.336;2023-04-25T08:46:49;10.20;99.90
19888;DHT22;10106;51.332;12.336;2023-04-25T08:49:16;10.20;99.90
19888;DHT22;10106;51.332;12.336;2023-04-25T08:51:46;10.40;99.90
19888;DHT22;10106;51.332;12.336;2023-04-25T08:54:14;10.50;99.90
19888;DHT22;10106;51.332;12.336;2023-04-25T08:56:43;10.40;99.90
19888;DHT22;10106;51.332;12.336;2023-04-25T08:59:13;10.40;99.90
19888;DHT22;10106;51.332;12.336;2023-04-25T09:01:39;10.50;99.90
19888;DHT22;10106;51.332;12.336;2023-04-25T09:04:05;10.30;99.90
19888;DHT22;10106;51.332;12.336;2023-04-25T09:06:31;10.30;99.90
19888;DHT22;10106;51.332;12.336;2023-04-25T09:09:15;10.50;99.90
19888;DHT22;10106;51.332;12.336;2023-04-25T09:11:41;10.80;99.90
19888;DHT22;10106;51.332;12.336;2023-04-25T09:14:15;11.30;99.90
19888;DHT22;10106;51.332;12.336;2023-04-25T09:21:54;12.10;99.90
19888;DHT22;10106;51.332;12.336;2023-04-25T09:24:33;11.90;99.90
19888;DHT22;10106;51.332;12.336;2023-04-25T09:27:00;11.80;99.90
19888;DHT22;10106;51.332;12.336;2023-04-25T09:29:37;12.10;99.90
19888;DHT22;10106;51.332;12.336;2023-04-25T09:32:18;12.30;99.90
19888;DHT22;10106;51.332;12.336;2023-04-25T09:34:47;12.20;99.90
19888;DHT22;10106;51.332;12.336;2023-04-25T09:37:29;11.70;99.90
19888;DHT22;10106;51.332;12.336;2023-04-25T09:39:57;11.50;99.90
19888;DHT22;10106;51.332;12.336;2023-04-25T09:42:27;11.40;99.90
19888;DHT22;10106;51.332;12.336;2023-04-25T09:44:55;11.10;99.90
19888;DHT22;10106;51.332;12.336;2023-04-25T09:47:26;10.90;99.90
19888;DHT22;10106;51.332;12.336;2023-04-25T09:49:54;10.90;99.90
19888;DHT22;10106;51.332;12.336;2023-04-25T09:52:22;10.90;99.90
19888;DHT22;10106;51.332;12.336;2023-04-25T09:54:52;11.00;99.90
19888;DHT22;10106;51.332;12.336;2023-04-25T09:57:23;10.90;99.90
19888;DHT22;10106;51.332;12.336;2023-04-25T09:59:50;11.00;99.90
19888;DHT22;10106;51.332;12.336;2023-04-25T10:02:19;11.30;99.90
19888;DHT22;10106;51.332;12.336;2023-04-25T10:04:50;11.40;99.90
19888;DHT22;10106;51.332;12.336;2023-04-25T10:07:18;11.20;99.90
19888;DHT22;10106;51.332;12.336;2023-04-25T10:09:48;11.00;99.90
19888;DHT22;10106;51.332;12.336;2023-04-25T10:12:14;10.90;99.90
19888;DHT22;10106;51.332;12.336;2023-04-25T10:14:42;10.80;99.90
19888;DHT22;10106;51.332;12.336;2023-04-25T10:17:10;10.60;99.90
19888;DHT22;10106;51.332;12.336;2023-04-25T10:19:37;10.50;99.90
19888;DHT22;10106;51.332;12.336;2023-04-25T10:22:07;10.60;99.90
19888;DHT22;10106;51.332;12.336;2023-04-25T10:24:35;10.70;99.90
19888;DHT22;10106;51.332;12.336;2023-04-25T10:27:02;10.70;99.90
19888;DHT22;10106;51.332;12.336;2023-04-25T10:29:28;11.00;99.90
19888;DHT22;10106;51.332;12.336;2023-04-25T10:31:54;11.60;99.90
19888;DHT22;10106;51.332;12.336;2023-04-25T10:34:24;11.80;99.90
19888;DHT22;10106;51.332;12.336;2023-04-25T10:37:05;12.00;99.90
19888;DHT22;10106;51.332;12.336;2023-04-25T10:39:33;11.70;99.90
19888;DHT22;10106;51.332;12.336;2023-04-25T10:42:02;11.70;99.90
19888;DHT22;10106;51.332;12.336;2023-04-25T10:44:29;11.60;99.90
19888;DHT22;10106;51.332;12.336;2023-04-25T10:46:57;11.60;99.90
19888;DHT22;10106;51.332;12.336;2023-04-25T10:49:34;11.40;99.90
19888;DHT22;10106;51.332;12.336;2023-04-25T10:52:17;11.10;99.90
19888;DHT22;10106;51.332;12.336;2023-04-25T10:57:42;10.80;99.90
19888;DHT22;10106;51.332;12.336;2023-04-25T11:00:19;10.80;99.90
19888;DHT22;10106;51.332;12.336;2023-04-25T11:03:07;10.80;99.90
19888;DHT22;10106;51.332;12.336;2023-04-25T11:05:35;10.80;99.90
19888;DHT22;10106;51.332;12.336;2023-04-25T11:08:02;10.80;99.90
19888;DHT22;10106;51.332;12.336;2023-04-25T11:10:29;10.70;99.90
19888;DHT22;10106;51.332;12.336;2023-04-25T11:12:56;10.70;99.90
19888;DHT22;10106;51.332;12.336;2023-04-25T11:15:22;10.70;99.90
19888;DHT22;10106;51.332;12.336;2023-04-25T11:17:50;10.60;99.90
19888;DHT22;10106;51.332;12.336;2023-04-25T11:20:16;10.50;99.90
19888;DHT22;10106;51.332;12.336;2023-04-25T11:22:44;10.40;99.90
19888;DHT22;10106;51.332;12.336;2023-04-25T11:25:11;10.30;99.90
19888;DHT22;10106;51.332;12.336;2023-04-25T11:27:49;10.30;99.90
19888;DHT22;10106;51.332;12.336;2023-04-25T11:30:16;10.10;99.90
19888;DHT22;10106;51.332;12.336;2023-04-25T11:32:42;10.00;99.90
19888;DHT22;10106;51.332;12.336;2023-04-25T11:35:10;9.80;99.90
19888;DHT22;10106;51.332;12.336;2023-04-25T11:37:39;9.80;99.90
19888;DHT22;10106;51.332;12.336;2023-04-25T11:40:05;9.80;99.90
19888;DHT22;10106;51.332;12.336;2023-04-25T11:42:37;9.90;99.90
19888;DHT22;10106;51.332;12.336;2023-04-25T11:45:04;10.00;99.90
19888;DHT22;10106;51.332;12.336;2023-04-25T11:47:31;10.20;99.90
19888;DHT22;10106;51.332;12.336;2023-04-25T11:50:04;10.50;99.90
19888;DHT22;10106;51.332;12.336;2023-04-25T11:52:39;10.60;99.90
19888;DHT22;10106;51.332;12.336;2023-04-25T11:55:09;10.70;99.90
19888;DHT22;10106;51.332;12.336;2023-04-25T11:57:38;10.70;99.90
19888;DHT22;10106;51.332;12.336;2023-04-25T12:00:18;10.70;99.90
19888;DHT22;10106;51.332;12.336;2023-04-25T12:02:45;10.90;99.90
19888;DHT22;10106;51.332;12.336;2023-04-25T12:05:12;10.80;99.90
19888;DHT22;10106;51.332;12.336;2023-04-25T12:07:38;10.80;99.90
19888;DHT22;10106;51.332;12.336;2023-04-25T12:10:04;10.70;99.90
19888;DHT22;10106;51.332;12.336;2023-04-25T12:12:34;10.70;99.90
19888;DHT22;10106;51.332;12.336;2023-04-25T12:15:17;10.80;99.90
19888;DHT22;10106;51.332;12.336;2023-04-25T12:17:49;11.00;99.90
19888;DHT22;10106;51.332;12.336;2023-04-25T12:22:47;12.00;99.30
19888;DHT22;10106;51.332;12.336;2023-04-25T12:28:23;12.20;98.80
19888;DHT22;10106;51.332;12.336;2023-04-25T12:31:00;12.20;98.20
19888;DHT22;10106;51.332;12.336;2023-04-25T12:33:31;11.80;98.40
19888;DHT22;10106;51.332;12.336;2023-04-25T12:35:57;11.60;98.70
19888;DHT22;10106;51.332;12.336;2023-04-25T12:38:36;11.30;99.50
19888;DHT22;10106;51.332;12.336;2023-04-25T12:41:02;11.10;99.90
19888;DHT22;10106;51.332;12.336;2023-04-25T12:43:28;11.00;99.90
19888;DHT22;10106;51.332;12.336;2023-04-25T12:45:54;11.00;99.90
19888;DHT22;10106;51.332;12.336;2023-04-25T12:48:21;11.00;99.90
19888;DHT22;10106;51.332;12.336;2023-04-25T12:50:47;11.00;99.30
19888;DHT22;10106;51.332;12.336;2023-04-25T12:53:21;10.90;99.40
19888;DHT22;10106;51.332;12.336;2023-04-25T12:55:48;10.80;99.90
19888;DHT22;10106;51.332;12.336;2023-04-25T12:58:18;10.70;98.20
19888;DHT22;10106;51.332;12.336;2023-04-25T13:00:44;10.30;96.70
19888;DHT22;10106;51.332;12.336;2023-04-25T13:03:11;10.10;96.00
19888;DHT22;10106;51.332;12.336;2023-04-25T13:05:38;10.10;96.70
19888;DHT22;10106;51.332;12.336;2023-04-25T13:08:04;10.20;96.90
19888;DHT22;10106;51.332;12.336;2023-04-25T13:10:30;10.20;96.50
19888;DHT22;10106;51.332;12.336;2023-04-25T13:12:56;10.10;95.80
19888;DHT22;10106;51.332;12.336;2023-04-25T13:15:22;10.10;95.50
19888;DHT22;10106;51.332;12.336;2023-04-25T13:17:48;10.10;95.30
19888;DHT22;10106;51.332;12.336;2023-04-25T13:20:14;10.10;94.70
19888;DHT22;10106;51.332;12.336;2023-04-25T13:22:42;10.00;94.40
19888;DHT22;10106;51.332;12.336;2023-04-25T13:25:08;10.00;94.30
19888;DHT22;10106;51.332;12.336;2023-04-25T13:27:35;10.10;94.00
19888;DHT22;10106;51.332;12.336;2023-04-25T13:30:02;10.40;94.20
19888;DHT22;10106;51.332;12.336;2023-04-25T13:32:38;10.80;93.40
19888;DHT22;10106;51.332;12.336;2023-04-25T13:35:06;11.40;92.80
19888;DHT22;10106;51.332;12.336;2023-04-25T13:37:32;11.80;91.10
19888;DHT22;10106;51.332;12.336;2023-04-25T13:40:09;12.10;89.10
19888;DHT22;10106;51.332;12.336;2023-04-25T13:42:38;12.30;88.80
19888;DHT22;10106;51.332;12.336;2023-04-25T13:45:05;12.70;87.50
19888;DHT22;10106;51.332;12.336;2023-04-25T13:47:31;12.80;84.20
19888;DHT22;10106;51.332;12.336;2023-04-25T13:49:56;12.50;85.00
19888;DHT22;10106;51.332;12.336;2023-04-25T13:52:22;12.60;83.20
19888;DHT22;10106;51.332;12.336;2023-04-25T13:54:51;12.80;83.70
19888;DHT22;10106;51.332;12.336;2023-04-25T13:57:17;13.10;84.70
19888;DHT22;10106;51.332;12.336;2023-04-25T13:59:43;13.20;82.90
19888;DHT22;10106;51.332;12.336;2023-04-25T14:02:09;13.00;83.70
19888;DHT22;10106;51.332;12.336;2023-04-25T14:04:35;12.80;82.10
19888;DHT22;10106;51.332;12.336;2023-04-25T14:07:01;12.60;83.70
19888;DHT22;10106;51.332;12.336;2023-04-25T14:09:35;12.70;83.10
19888;DHT22;10106;51.332;12.336;2023-04-25T14:12:04;12.80;82.10
19888;DHT22;10106;51.332;12.336;2023-04-25T14:14:31;12.70;80.20
19888;DHT22;10106;51.332;12.336;2023-04-25T14:16:59;12.70;76.80
19888;DHT22;10106;51.332;12.336;2023-04-25T14:19:24;12.50;74.10
19888;DHT22;10106;51.332;12.336;2023-04-25T14:21:50;12.10;75.20
19888;DHT22;10106;51.332;12.336;2023-04-25T14:24:16;12.00;74.50
19888;DHT22;10106;51.332;12.336;2023-04-25T14:26:42;12.00;74.40
19888;DHT22;10106;51.332;12.336;2023-04-25T14:29:08;11.80;74.80
19888;DHT22;10106;51.332;12.336;2023-04-25T14:31:37;11.70;75.60
19888;DHT22;10106;51.332;12.336;2023-04-25T14:34:02;11.70;76.30
19888;DHT22;10106;51.332;12.336;2023-04-25T14:36:32;11.50;76.40
19888;DHT22;10106;51.332;12.336;2023-04-25T14:38:58;11.50;77.50
19888;DHT22;10106;51.332;12.336;2023-04-25T14:41:25;11.50;77.40
19888;DHT22;10106;51.332;12.336;2023-04-25T14:43:51;11.70;78.10
19888;DHT22;10106;51.332;12.336;2023-04-25T14:46:18;11.80;77.10
19888;DHT22;10106;51.332;12.336;2023-04-25T14:48:45;11.90;76.20
19888;DHT22;10106;51.332;12.336;2023-04-25T14:51:14;12.00;74.50
19888;DHT22;10106;51.332;12.336;2023-04-25T14:53:40;12.00;74.30
19888;DHT22;10106;51.332;12.336;2023-04-25T14:56:06;12.10;72.70
19888;DHT22;10106;51.332;12.336;2023-04-25T14:58:33;11.90;71.40
19888;DHT22;10106;51.332;12.336;2023-04-25T15:00:59;12.00;71.80
19888;DHT22;10106;51.332;12.336;2023-04-25T15:03:25;12.10;71.20
19888;DHT22;10106;51.332;12.336;2023-04-25T15:05:51;11.70;74.40
19888;DHT22;10106;51.332;12.336;2023-04-25T15:08:17;11.40;76.80
19888;DHT22;10106;51.332;12.336;2023-04-25T15:10:49;11.30;78.00
19888;DHT22;10106;51.332;12.336;2023-04-25T15:13:17;11.10;77.90
19888;DHT22;10106;51.332;12.336;2023-04-25T15:15:43;10.90;79.20
19888;DHT22;10106;51.332;12.336;2023-04-25T15:18:09;10.90;80.10
19888;DHT22;10106;51.332;12.336;2023-04-25T15:20:34;11.00;81.60
19888;DHT22;10106;51.332;12.336;2023-04-25T15:23:01;11.10;80.60
19888;DHT22;10106;51.332;12.336;2023-04-25T15:25:28;11.00;79.30
19888;DHT22;10106;51.332;12.336;2023-04-25T15:27:54;11.20;80.00
19888;DHT22;10106;51.332;12.336;2023-04-25T15:30:20;11.20;79.30
19888;DHT22;10106;51.332;12.336;2023-04-25T15:32:46;11.40;79.30
19888;DHT22;10106;51.332;12.336;2023-04-25T15:35:13;11.40;79.60
19888;DHT22;10106;51.332;12.336;2023-04-25T15:37:39;11.50;79.80
19888;DHT22;10106;51.332;12.336;2023-04-25T15:42:39;11.50;78.50
19888;DHT22;10106;51.332;12.336;2023-04-25T15:45:07;11.40;79.10